1973 Severe Tropical Cyclone JEAN (1973010S12115)


IBTrACS version v04r00. Visit IBTrACS website for data access.
Please direct all questions to the IBTrACS Q and A forum

Storm track - Intensity - Wind Radii - Intensity Data - Source Data - All data

Summary Information

Storm ID 1973010S12115
Start Jan 10 00Z
Max Intensity 80 kt (Jan 13 00Z), 964 mb (Jan 13 00Z)
End Jan 17 01Z
ATCF IDs ,SH091973
Track status Best track data.

Storm track plot

Map of storm track

Intensity plots

Map of storm track

Radial wind information

No radial wind information for this storm


Position and Intensity Table

BASIN ISO_TIME_________ NATURE LAT LON WMO WIND WMO PRES BOM WIND BOM PRES DS824 WIND DS824 PRES NEUMANN WIND NEUMANN PRES
degrees north degrees east kts mb kts mb kts mb kts mb
SI 1973-01-10 00:00:00 TS -12.10 115.00
SI 01:00:00 TS -12.15 115.00 20 1005 20 1005
SI 03:00:00 TS -12.29 115.00 23 1004
SI 04:00:00 TS -12.37 115.00 25 1004 25 1004
SI 06:00:00 TS -12.51 115.01 25 1003 25 1003 20 1004
SI 07:00:00 TS -12.59 115.01 25 1003 25 1003 25 1002 20 1003
SI 09:00:00 TS -12.78 115.02 25 1002 25 1002 22 1003
SI 10:00:00 TS -12.86 115.02 25 1002 25 1002 25 1002 23 1002
SI 12:00:00 TS -13.03 115.02 25 1002 25 1002 25 1002
SI 13:00:00 TS -13.11 115.02 25 1002 25 1002 25 1001 25 1001
SI 15:00:00 TS -13.26 115.02 25 1002 27 1001 25 1001
SI 16:00:00 TS -13.35 115.02 25 1002 25 1002 28 1001 25 1001
SI 18:00:00 TS -13.54 115.02 25 1001 30 1001 25 1001
SI 19:00:00 TS -13.64 115.03 25 1001 25 1001 30 1000 25 1000
SI 21:00:00 TS -13.87 115.03 25 1000 30 1000 27 1000
SI 22:00:00 TS -14.00 115.03 25 1000 25 1000 30 1000 28 1000
SI 1973-01-11 00:00:00 TS -14.27 115.01 25 1000 30 1000 30 1000
SI 01:00:00 TS -14.43 114.98 25 1000 25 1000 30 999 30 999
SI 03:00:00 TS -14.77 114.89 28 997 32 998 32 998
SI 04:00:00 TS -14.94 114.84 30 997 30 997 33 997 33 998
SI 06:00:00 TS -15.30 114.73 30 996 35 996 35 997
SI 07:00:00 TS -15.48 114.68 30 996 30 996 36 995 35 996
SI 09:00:00 TS -15.80 114.59 30 994 40 994 37 995
SI 10:00:00 TS -15.96 114.54 30 994 30 994 41 993 38 994
SI 12:00:00 TS -16.27 114.44 36 992 45 992 40 993
SI 13:00:00 TS -16.42 114.39 40 992 40 992 45 991 41 992
SI 15:00:00 TS -16.73 114.28 40 990 45 991 45 990
SI 16:00:00 TS -16.87 114.21 40 990 40 990 45 990 46 989
SI 18:00:00 TS -17.13 114.04 43 990 45 990 50 988
SI 19:00:00 TS -17.26 113.95 45 990 45 990 47 988 51 987
SI 21:00:00 TS -17.52 113.75 48 987 52 985 55 985
SI 22:00:00 TS -17.63 113.64 50 986 50 986 54 983 56 984
SI 1973-01-12 00:00:00 TS -17.76 113.37 56 981 60 980 60 982
SI 01:00:00 TS -17.80 113.24 60 980 60 980 61 978 60 981
SI 03:00:00 TS -17.82 113.01 66 973 65 975 62 979
SI 04:00:00 TS -17.81 112.89 70 970 70 970 66 973 63 978
SI 06:00:00 TS -17.80 112.65 70 970 70 970 65 976
SI 07:00:00 TS -17.80 112.52 70 970 70 970 70 970 66 975
SI 09:00:00 TS -17.81 112.22 70 970 70 970 70 973
SI 10:00:00 TS -17.83 112.05 70 970 70 970 70 970 71 972
SI 12:00:00 TS -17.89 111.67 70 970 70 970 75 971
SI 13:00:00 TS -17.93 111.45 70 970 70 970 70 969 75 970
SI 15:00:00 TS -18.03 110.97 70 970 72 969 75 969
SI 16:00:00 TS -18.09 110.71 70 970 70 970 73 968 75 969
SI 18:00:00 TS -18.22 110.14 73 968 75 968 75 968
SI 19:00:00 TS -18.30 109.85 75 968 75 968 75 967 75 967
SI 21:00:00 TS -18.50 109.29 75 966 77 966 77 966
SI 22:00:00 TS -18.62 109.02 75 966 75 966 78 965 78 966
SI 1973-01-13 00:00:00 TS -18.83 108.51 78 964 80 964 80 965
SI 01:00:00 TS -18.93 108.30 80 964 80 964 80 964 80 964
SI 03:00:00 TS -19.12 107.99 80 964 80 964 80 964
SI 04:00:00 TS -19.21 107.86 80 964 80 964 80 964 80 964
SI 06:00:00 TS -19.38 107.57 80 964 80 964 80 964
SI 07:00:00 TS -19.46 107.42 80 964 80 964 80 964 80 964
SI 09:00:00 TS -19.60 107.16 80 964 80 964 80 964
SI 10:00:00 TS -19.67 107.03 80 964 80 964 80 964 80 964
SI 12:00:00 TS -19.80 106.79 80 964 80 964 80 964
SI 13:00:00 TS -19.86 106.67 80 964 80 964 80 964 80 964
SI 15:00:00 TS -19.99 106.42 80 964 80 964 80 964
SI 16:00:00 TS -20.05 106.30 80 965 80 965 80 964 80 964
SI 18:00:00 TS -20.19 106.07 80 965 80 965 80 964
SI 19:00:00 TS -20.27 105.94 80 965 80 965 80 965 80 964
SI 21:00:00 TS -20.43 105.66 80 965 80 965 80 964
SI 22:00:00 TS -20.51 105.51 80 965 80 965 80 965 80 964
SI 1973-01-14 00:00:00 TS -20.70 105.21 80 965 80 965 80 964
SI 01:00:00 TS -20.79 105.06 80 965 80 965 78 965
SI 03:00:00 TS -20.93 104.78 80 967 75 967
SI 04:00:00 TS -20.99 104.64 80 968 80 968 73 968
SI 06:00:00 TS -21.13 104.36 73 969 70 970
SI 07:00:00 TS -21.21 104.22 70 970 70 970 69 970
SI 09:00:00 TS -21.40 103.94 70 970 67 972
SI 10:00:00 TS -21.50 103.80 70 970 70 970 66 973
SI 12:00:00 TS -21.70 103.51 66 973 65 975
SI 13:00:00 TS -21.81 103.36 65 975 65 975 64 975
SI 15:00:00 TS -22.04 103.06 65 975 62 976
SI 16:00:00 TS -22.15 102.91 65 975 65 975 61 976
SI 18:00:00 TS -22.38 102.61 61 977 60 978
SI 19:00:00 TS -22.52 102.44 60 978 60 978 59 978
SI 20:00:00 TS -22.70 102.24 55 980 55 980 58 979
SI 21:00:00 TS -22.84 102.07 55 980 57 980
SI 22:00:00 TS -22.95 101.92 55 980 56 980
SI 1973-01-15 00:00:00 TS -23.10 101.64 55 981 55 982
SI 01:00:00 TS -23.17 101.48 55 982 55 982 55 982
SI 03:00:00 TS -23.35 101.08 55 982 55 983
SI 04:00:00 TS -23.44 100.89 55 982 55 982 55 983
SI 06:00:00 TS -23.64 100.56 51 984 55 985
SI 07:00:00 TS -23.73 100.41 50 985 50 985 54 985
SI 09:00:00 TS -23.90 100.13 50 985 52 985
SI 10:00:00 TS -24.00 100.02 50 985 50 985 51 985
SI 12:00:00 TS -24.26 99.88 50 985 50 986
SI 13:00:00 TS -24.43 99.84 50 986 50 986 49 986
SI 15:00:00 TS -24.77 99.77 50 986 47 988
SI 16:00:00 TS -24.94 99.74 50 987 50 987 46 988
SI 18:00:00 TS -25.23 99.68 46 989 45 990
SI 19:00:00 TS -25.35 99.61 45 990 45 990 45 990
SI 20:00:00 TS -25.47 99.50 45 990 45 990 45 990
SI 21:00:00 TS -25.55 99.41 44 990 45 991
SI 22:00:00 TS -25.60 99.33 43 990 45 991
SI 1973-01-16 00:00:00 TS -25.62 99.20 40 991 45 992
SI 01:00:00 TS -25.61 99.13 40 992 40 992 45 992
SI 03:00:00 TS -25.56 98.97 40 992 45 992
SI 04:00:00 TS -25.52 98.90 40 992 40 992 45 992
SI 06:00:00 TS -25.42 98.77 40 992 45 992
SI 07:00:00 TS -25.37 98.72 40 992 40 992 44 992
SI 09:00:00 TS -25.26 98.63 40 992 42 992
SI 10:00:00 TS -25.20 98.59 40 992 40 992 41 992
SI 12:00:00 TS -25.10 98.55 36 992 40 993
SI 13:00:00 TS -25.06 98.53 35 993 35 993 40 993
SI 15:00:00 TS -24.98 98.51 35 993 40 994
SI 16:00:00 TS -24.94 98.51 35 994 35 994 40 994
SI 18:00:00 TS -24.84 98.49 35 994 40 995
SI 19:00:00 TS -24.80 98.49 35 995 35 995 39 995
SI 21:00:00 TS -24.68 98.49 31 995 37 996
SI 22:00:00 TS -24.62 98.50 30 996 30 996 36 996
SI 1973-01-17 00:00:00 TS -24.52 98.50 26 996 35 997
SI 01:00:00 NR -24.50 98.50 25 997 25 997

Source Information

Agency Information
USA bsh091973.txt
TOKYO
CMA
HKO
NEWDELHI
REUNION
BOM IDCKMSTM0S.csv:Line=7441:JEAN
NADI
WELLINGTON
DS824 aus_area.dat:493:JEAN
TD9636 cons_worldwide_trop_cyclone_18710101-19891231-006:Line=9091
TD9635
NEUMANN tracks.sh:Storm=351:JEAN:BSH0973:BM419
MLC

All available IBTrACS Data

SEASON BASIN SUBBASIN ISO_TIME_________ NATURE LAT LON WMO WIND WMO PRES WMO AGENCY DIST2LAND LANDFALL IFLAG USA AGENCY USA ATCF_ID USA LAT USA LON USA SSHS BOM LAT BOM LON BOM TYPE BOM WIND BOM PRES BOM CI DS824 LAT DS824 LON DS824 STAGE DS824 WIND DS824 PRES TD9636 LAT TD9636 LON TD9636 STAGE NEUMANN LAT NEUMANN LON NEUMANN CLASS NEUMANN WIND NEUMANN PRES BOM GUST BOM GUST_PER STORM SPEED STORM DIR
Year degrees north degrees east kts mb km km degrees north degrees east 1 degrees north degrees east kts mb 1 degrees north degrees east kts mb degrees north degrees east degrees north degrees east kts mb kts second kts degrees
1973 SI WA 1973-01-10 00:00:00 TS -12.10 115.00 369 369 O_____________ jtwc_sh SH091973 -12.10 115.00 -1 3 0
1973 SI WA 01:00:00 TS -12.15 115.00 20 1005 bom 369 369 P_____O_______ SH091973 -12.18 115.00 -1 -12.00 115.00 20 20 1005 1.00 45 45 4 0
1973 SI WA 03:00:00 TS -12.29 115.00 392 392 P_____P_______ SH091973 -12.35 115.00 -1 -12.13 115.00 20 23 1004 4 185
1973 SI WA 04:00:00 TS -12.37 115.00 25 1004 bom 403 403 P_____O_______ SH091973 -12.43 115.00 -1 -12.20 115.00 20 25 1004 1.50 45 45 4 177
1973 SI WA 06:00:00 TS -12.51 115.01 414 414 O_____P__O__O_ jtwc_sh SH091973 -12.60 115.00 -1 -12.39 115.00 20 25 1003 -12.40 115.00 TC 25 1003 -12.40 115.10 TC 20 1004 4 0
1973 SI WA 07:00:00 TS -12.59 115.01 25 1003 bom 425 425 P_____O__P__P_ SH091973 -12.68 115.00 -1 -12.50 115.00 20 25 1003 1.50 -12.51 115.00 TC 25 1002 -12.48 115.10 TC 20 1003 45 45 5 0
1973 SI WA 09:00:00 TS -12.78 115.02 448 448 P_____P__P__P_ SH091973 -12.85 115.00 -1 -12.78 115.00 20 25 1002 -12.72 115.00 TC 25 1002 -12.64 115.10 TC 22 1003 6 177
1973 SI WA 10:00:00 TS -12.86 115.02 25 1002 bom 459 459 P_____O__PO_P_ SH091973 -12.93 115.00 -1 -12.90 115.00 20 25 1002 1.50 -12.82 115.00 TC 25 1002 -12.90 115.00 2 -12.73 115.10 TC 23 1002 45 45 5 176
1973 SI WA 12:00:00 TS -13.03 115.02 470 470 O_____P__OP_O_ jtwc_sh SH091973 -13.10 115.00 -1 -13.04 115.00 20 25 1002 -13.00 115.00 TC 25 1002 -13.04 115.02 2 -12.90 115.10 TC 25 1002 5 175
1973 SI WA 13:00:00 TS -13.11 115.02 25 1002 bom 481 481 P_____O__PP_P_ SH091973 -13.18 115.00 -1 -13.10 115.00 20 25 1002 1.50 -13.08 115.00 TC 25 1001 -13.11 115.03 2 -12.99 115.10 TC 25 1001 45 45 5 0
1973 SI WA 15:00:00 TS -13.26 115.02 504 504 P_____P__PP_P_ SH091973 -13.34 115.00 -1 -13.23 115.00 20 25 1002 -13.24 115.00 TC 27 1001 -13.27 115.04 2 -13.19 115.10 TC 25 1001 5 0
1973 SI WA 16:00:00 TS -13.35 115.02 25 1002 bom 504 504 P_____O__PP_P_ SH091973 -13.42 115.00 -1 -13.30 115.00 20 25 1002 1.50 -13.32 115.00 TC 28 1001 -13.35 115.04 2 -13.29 115.10 TC 25 1001 45 45 6 175
1973 SI WA 18:00:00 TS -13.54 115.02 526 526 O_____P__OP_O_ jtwc_sh SH091973 -13.60 115.00 -1 -13.49 115.00 20 25 1001 -13.50 115.00 TC 30 1001 -13.54 115.04 2 -13.50 115.10 TC 25 1001 6 178
1973 SI WA 19:00:00 TS -13.64 115.03 25 1001 bom 537 537 P_____O__PP_P_ SH091973 -13.70 115.01 -1 -13.60 115.00 20 25 1001 2.00 -13.61 115.01 TC 30 1000 -13.64 115.04 2 -13.61 115.11 TC 25 1000 45 45 7 0
1973 SI WA 21:00:00 TS -13.87 115.03 569 569 P_____P__PP_P_ SH091973 -13.91 115.02 -1 -13.86 115.00 20 25 1000 -13.85 115.02 TC 30 1000 -13.87 115.02 2 -13.83 115.11 TC 27 1000 7 0
1973 SI WA 22:00:00 TS -14.00 115.03 25 1000 bom 580 580 P_____O__PO_P_ SH091973 -14.03 115.02 -1 -14.00 115.00 20 25 1000 2.00 -13.99 115.02 TC 30 1000 -14.00 115.00 2 -13.95 115.12 TC 28 1000 45 45 8 0
1973 SI WA 1973-01-11 00:00:00 TS -14.27 115.01 612 612 O_____P__OP_O_ jtwc_sh SH091973 -14.30 115.00 -1 -14.25 115.02 20 25 1000 -14.30 115.00 TC 30 1000 -14.29 114.95 2 -14.20 115.10 TC 30 1000 9 184
1973 SI WA 01:00:00 TS -14.43 114.98 25 1000 bom 623 623 P_____O__PP_P_ SH091973 -14.45 114.97 -1 -14.40 115.00 20 25 1000 2.00 -14.47 114.97 TC 30 999 -14.45 114.92 2 -14.34 115.08 TC 30 999 45 45 10 193
1973 SI WA 03:00:00 TS -14.77 114.89 669 665 P_____P__PP_P_ SH091973 -14.78 114.87 -1 -14.79 114.88 20 28 997 -14.84 114.87 TC 32 998 -14.78 114.85 2 -14.63 115.02 TC 32 998 11 195
1973 SI WA 04:00:00 TS -14.94 114.84 30 997 bom 668 629 P_____O__PP_P_ SH091973 -14.95 114.82 -1 -15.00 114.80 20 30 997 2.50 -15.03 114.82 TC 33 997 -14.96 114.81 2 -14.78 114.99 TC 33 998 45 45 11 196
1973 SI WA 06:00:00 TS -15.30 114.73 629 619 O_____P__OP_O_ jtwc_sh SH091973 -15.30 114.70 -1 -15.42 114.66 20 30 996 -15.40 114.70 TC 35 996 -15.31 114.72 2 -15.10 114.90 TC 35 997 11 196
1973 SI WA 07:00:00 TS -15.48 114.68 30 996 bom 608 581 P_____O__PP_P_ SH091973 -15.47 114.65 -1 -15.60 114.60 20 30 996 2.50 -15.56 114.65 TC 36 995 -15.49 114.67 2 -15.27 114.86 TC 35 996 45 45 10 196
1973 SI WA 09:00:00 TS -15.80 114.59 581 570 P_____P__PP_P_ SH091973 -15.81 114.56 -1 -15.88 114.53 20 30 994 -15.87 114.55 TC 40 994 -15.83 114.56 2 -15.61 114.78 TC 37 995 10 196
1973 SI WA 10:00:00 TS -15.96 114.54 30 994 bom 564 544 P_____O__PO_P_ SH091973 -15.97 114.51 -1 -16.00 114.50 20 30 994 2.50 -16.02 114.50 TC 41 993 -16.00 114.50 2 -15.78 114.73 TC 38 994 45 45 10 197
1973 SI WA 12:00:00 TS -16.27 114.44 538 528 O_____P__OP_O_ jtwc_sh SH091973 -16.30 114.40 -1 -16.26 114.43 20 36 992 -16.30 114.40 TC 45 992 -16.34 114.41 2 -16.10 114.60 TC 40 993 10 197
1973 SI WA 13:00:00 TS -16.42 114.39 40 992 bom 528 504 P_____O__PP_P_ SH091973 -16.46 114.34 -1 -16.40 114.40 30 40 992 3.00 -16.44 114.37 TC 45 991 -16.51 114.36 2 -16.25 114.52 TC 41 992 55 55 10 199
1973 SI WA 15:00:00 TS -16.73 114.28 504 490 P_____P__PP_P_ SH091973 -16.78 114.21 -1 -16.74 114.35 30 40 990 -16.71 114.29 TC 45 991 -16.84 114.25 2 -16.52 114.33 TC 45 990 10 201
1973 SI WA 16:00:00 TS -16.87 114.21 40 990 bom 490 477 P_____O__PP_P_ SH091973 -16.93 114.15 -1 -16.90 114.30 30 40 990 3.00 -16.85 114.25 TC 45 990 -16.99 114.19 2 -16.65 114.22 TC 46 989 55 55 9 209
1973 SI WA 18:00:00 TS -17.13 114.04 483 474 O_____P__OP_O_ jtwc_sh SH091973 -17.20 114.00 -1 -17.10 114.11 30 43 990 -17.10 114.10 TC 45 990 -17.28 114.05 2 -16.90 114.00 TC 50 988 9 213
1973 SI WA 19:00:00 TS -17.26 113.95 45 990 bom 464 456 P_____O__PP_P_ SH091973 -17.33 113.93 -1 -17.20 114.00 30 45 990 3.00 -17.24 113.98 TC 47 988 -17.40 113.98 2 -17.04 113.89 TC 51 987 64 64 10 215
1973 SI WA 21:00:00 TS -17.52 113.75 456 452 P_____P__PP_P_ SH091973 -17.57 113.78 -1 -17.55 113.83 30 48 987 -17.51 113.67 TC 52 985 -17.62 113.80 2 -17.29 113.66 TC 55 985 10 219
1973 SI WA 22:00:00 TS -17.63 113.64 50 986 bom 459 450 P_____O__PO_P_ SH091973 -17.66 113.70 -1 -17.70 113.70 30 50 986 3.50 -17.63 113.51 TC 54 983 -17.70 113.70 2 -17.41 113.54 TC 56 984 69 69 9 236
1973 SI WA 1973-01-12 00:00:00 TS -17.76 113.37 452 452 O_____P__OP_O_ jtwc_sh SH091973 -17.80 113.50 -1 -17.80 113.22 30 56 981 -17.80 113.20 TC 60 980 -17.79 113.50 2 -17.60 113.30 TC 60 982 8 246
1973 SI WA 01:00:00 TS -17.80 113.24 60 980 bom 465 465 P_____O__PP_P_ SH091973 -17.83 113.39 -1 -17.80 113.00 30 60 980 4.00 -17.84 113.09 TC 61 978 -17.81 113.39 2 -17.66 113.18 TC 60 981 84 84 7 262
1973 SI WA 03:00:00 TS -17.82 113.01 470 470 P_____P__PP_P_ SH091973 -17.84 113.14 -1 -17.81 112.77 30 66 973 -17.84 112.90 TC 65 975 -17.82 113.15 2 -17.74 112.95 TC 62 979 7 267
1973 SI WA 04:00:00 TS -17.81 112.89 70 970 bom 472 472 P_____O__PP_P_ SH091973 -17.82 113.01 -1 -17.80 112.70 40 70 970 4.50 -17.83 112.81 TC 66 973 -17.82 113.01 2 -17.77 112.83 TC 63 978 99 99 7 273
1973 SI WA 06:00:00 TS -17.80 112.65 478 478 O_____P__OP_O_ jtwc_sh SH091973 -17.80 112.70 -1 -17.80 112.58 40 70 970 -17.80 112.60 TC 70 970 -17.80 112.72 2 -17.80 112.60 TC 65 976 7 271
1973 SI WA 07:00:00 TS -17.80 112.52 70 970 bom 484 484 P_____O__PP_P_ SH091973 -17.80 112.55 -1 -17.80 112.50 40 70 970 4.50 -17.81 112.48 TC 70 970 -17.79 112.55 2 -17.81 112.50 TC 66 975 99 99 8 268
1973 SI WA 09:00:00 TS -17.81 112.22 495 495 P_____P__PP_P_ SH091973 -17.82 112.22 -1 -17.79 112.18 40 70 970 -17.83 112.21 TC 70 970 -17.79 112.20 2 -17.83 112.31 TC 70 973 9 267
1973 SI WA 10:00:00 TS -17.83 112.05 70 970 bom 499 498 P_____O__PO_P_ SH091973 -17.84 112.03 -1 -17.80 112.00 40 70 970 4.50 -17.85 112.06 TC 70 970 -17.80 112.00 2 -17.85 112.20 TC 71 972 99 99 11 262
1973 SI WA 12:00:00 TS -17.89 111.67 507 507 O_____P__OP_O_ jtwc_sh SH091973 -17.90 111.60 -1 -17.86 111.67 40 70 970 -17.90 111.70 TC 70 970 -17.89 111.55 2 -17.90 111.90 TC 75 971 12 260
1973 SI WA 13:00:00 TS -17.93 111.45 70 970 bom 523 519 P_____O__PP_P_ SH091973 -17.95 111.34 -1 -17.90 111.50 40 70 970 4.50 -17.91 111.51 TC 70 969 -17.94 111.30 2 -17.95 111.70 TC 75 970 99 99 14 258
1973 SI WA 15:00:00 TS -18.03 110.97 537 537 P_____P__PP_P_ SH091973 -18.07 110.77 -1 -17.97 111.21 40 70 970 -17.95 111.08 TC 72 969 -18.06 110.79 2 -18.07 111.23 TC 75 969 14 257
1973 SI WA 16:00:00 TS -18.09 110.71 70 970 bom 547 547 P_____O__PP_P_ SH091973 -18.14 110.47 -1 -18.00 111.00 40 70 970 4.50 -17.98 110.84 TC 73 968 -18.13 110.52 2 -18.14 110.96 TC 75 969 99 99 16 257
1973 SI WA 18:00:00 TS -18.22 110.14 580 580 O_____P__OP_O_ jtwc_sh SH091973 -18.30 109.90 -1 -18.04 110.36 40 73 968 -18.10 110.30 TC 75 968 -18.27 109.99 2 -18.30 110.40 TC 75 968 17 256
1973 SI WA 19:00:00 TS -18.30 109.85 75 968 bom 587 587 P_____O__PP_P_ SH091973 -18.37 109.65 -1 -18.10 110.00 40 75 968 4.50 -18.21 109.97 TC 75 967 -18.35 109.73 2 -18.38 110.11 TC 75 967 104 104 17 251
1973 SI WA 21:00:00 TS -18.50 109.29 620 620 P_____P__PP_P_ SH091973 -18.53 109.20 -1 -18.42 109.33 40 75 966 -18.48 109.26 TC 77 966 -18.52 109.23 2 -18.54 109.51 TC 77 966 17 248
1973 SI WA 22:00:00 TS -18.62 109.02 75 966 bom 638 638 P_____O__PO_P_ SH091973 -18.62 108.99 -1 -18.60 109.00 40 75 966 4.50 -18.63 108.91 TC 78 965 -18.60 109.00 2 -18.63 109.22 TC 78 966 104 104 16 246
1973 SI WA 1973-01-13 00:00:00 TS -18.83 108.51 669 669 O_____P__OP_O_ jtwc_sh SH091973 -18.80 108.60 -1 -18.88 108.27 40 78 964 -18.90 108.30 TC 80 964 -18.77 108.60 2 -18.80 108.70 TC 80 965 15 245
1973 SI WA 01:00:00 TS -18.93 108.30 80 964 bom 682 682 P_____O__PP_P_ SH091973 -18.90 108.41 -1 -19.00 108.00 40 80 964 5.00 -19.00 108.10 TC 80 964 -18.86 108.41 2 -18.89 108.49 TC 80 964 110 110 11 239
1973 SI WA 03:00:00 TS -19.12 107.99 698 698 P_____P__PP_P_ SH091973 -19.11 108.07 -1 -19.21 107.85 40 80 964 -19.18 107.80 TC 80 964 -19.05 108.05 2 -19.06 108.12 TC 80 964 10 236
1973 SI WA 04:00:00 TS -19.21 107.86 80 964 bom 703 703 P_____O__PP_P_ SH091973 -19.21 107.91 -1 -19.30 107.80 40 80 964 5.00 -19.26 107.69 TC 80 964 -19.15 107.89 2 -19.14 107.97 TC 80 964 110 110 10 237
1973 SI WA 06:00:00 TS -19.38 107.57 718 718 O_____P__OP_O_ jtwc_sh SH091973 -19.40 107.60 -1 -19.44 107.47 40 80 964 -19.40 107.50 TC 80 964 -19.34 107.57 2 -19.30 107.70 TC 80 964 10 239
1973 SI WA 07:00:00 TS -19.46 107.42 80 964 bom 730 730 P_____O__PP_P_ SH091973 -19.48 107.44 -1 -19.50 107.30 40 80 964 5.00 -19.47 107.38 TC 80 964 -19.43 107.42 2 -19.37 107.57 TC 80 964 110 110 9 241
1973 SI WA 09:00:00 TS -19.60 107.16 743 743 P_____P__PP_P_ SH091973 -19.61 107.13 -1 -19.63 107.09 40 80 964 -19.61 107.14 TC 80 964 -19.61 107.14 2 -19.49 107.33 TC 80 964 8 240
1973 SI WA 10:00:00 TS -19.67 107.03 80 964 bom 757 757 P_____O__PO_P_ SH091973 -19.68 106.98 -1 -19.70 107.00 40 80 964 5.00 -19.68 107.03 TC 80 964 -19.70 107.00 2 -19.56 107.22 TC 80 964 110 110 8 240
1973 SI WA 12:00:00 TS -19.80 106.79 771 771 O_____P__OP_O_ jtwc_sh SH091973 -19.80 106.70 -1 -19.84 106.81 40 80 964 -19.80 106.80 TC 80 964 -19.84 106.73 2 -19.70 107.00 TC 80 964 8 240
1973 SI WA 13:00:00 TS -19.86 106.67 80 964 bom 775 775 P_____O__PP_P_ SH091973 -19.87 106.57 -1 -19.90 106.70 40 80 964 5.00 -19.85 106.69 TC 80 964 -19.91 106.60 2 -19.79 106.87 TC 80 964 110 110 8 241
1973 SI WA 15:00:00 TS -19.99 106.42 800 800 P_____P__PP_P_ SH091973 -20.00 106.34 -1 -19.96 106.43 40 80 964 -19.93 106.46 TC 80 964 -20.04 106.35 2 -19.99 106.61 TC 80 964 8 241
1973 SI WA 16:00:00 TS -20.05 106.30 80 965 bom 805 805 P_____O__PP_P_ SH091973 -20.07 106.23 -1 -20.00 106.30 40 80 965 5.00 -19.97 106.35 TC 80 964 -20.11 106.23 2 -20.10 106.47 TC 80 964 110 110 8 239
1973 SI WA 18:00:00 TS -20.19 106.07 821 821 O_____P__OP_O_ jtwc_sh SH091973 -20.20 106.00 -1 -20.12 106.11 40 80 965 -20.10 106.10 TC 80 965 -20.23 105.99 2 -20.30 106.20 TC 80 964 8 237
1973 SI WA 19:00:00 TS -20.27 105.94 80 965 bom 837 837 P_____O__PP_P_ SH091973 -20.26 105.87 -1 -20.20 106.00 40 80 965 5.00 -20.20 105.96 TC 80 965 -20.30 105.87 2 -20.39 106.06 TC 80 964 110 110 9 238
1973 SI WA 21:00:00 TS -20.43 105.66 853 853 P_____P__PP_P_ SH091973 -20.39 105.61 -1 -20.38 105.68 40 80 965 -20.44 105.67 TC 80 965 -20.43 105.63 2 -20.57 105.80 TC 80 964 9 239
1973 SI WA 22:00:00 TS -20.51 105.51 80 965 bom 869 869 P_____O__PO_P_ SH091973 -20.46 105.47 -1 -20.50 105.50 40 80 965 5.00 -20.57 105.51 TC 80 965 -20.50 105.50 2 -20.65 105.66 TC 80 964 110 110 10 237
1973 SI WA 1973-01-14 00:00:00 TS -20.70 105.21 893 893 O_____P__OP_O_ jtwc_sh SH091973 -20.60 105.20 -1 -20.85 105.16 40 80 965 -20.80 105.20 TC 80 965 -20.64 105.23 2 -20.80 105.40 TC 80 964 10 237
1973 SI WA 01:00:00 TS -20.79 105.06 80 965 bom 900 900 P_____O__PP___ SH091973 -20.67 105.07 -1 -21.00 105.00 40 80 965 5.00 -20.88 105.05 TC 78 965 -20.72 105.09 2 TC 110 110 9 241
1973 SI WA 03:00:00 TS -20.93 104.78 928 928 P_____P__PP___ SH091973 -20.83 104.81 -1 -21.09 104.73 40 80 967 -21.01 104.74 TC 75 967 -20.87 104.81 2 TC 9 242
1973 SI WA 04:00:00 TS -20.99 104.64 80 968 bom 945 945 P_____O__PP___ SH091973 -20.92 104.67 -1 -21.10 104.60 40 80 968 5.00 -21.08 104.59 TC 73 968 -20.95 104.67 2 TC 110 110 9 242
1973 SI WA 06:00:00 TS -21.13 104.36 963 963 O_____P__OP___ jtwc_sh SH091973 -21.10 104.40 -1 -21.15 104.33 40 73 969 -21.20 104.30 TC 70 970 -21.12 104.38 2 9 241
1973 SI WA 07:00:00 TS -21.21 104.22 70 970 bom 981 979 P_____O__PP___ SH091973 -21.19 104.26 -1 -21.20 104.20 40 70 970 4.50 -21.27 104.16 TC 69 970 -21.21 104.24 2 99 99 10 236
1973 SI WA 09:00:00 TS -21.40 103.94 1008 1008 P_____P__PP___ SH091973 -21.38 103.96 -1 -21.39 103.93 40 70 970 -21.43 103.90 TC 67 972 -21.40 103.95 2 10 234
1973 SI WA 10:00:00 TS -21.50 103.80 70 970 bom 1016 1016 P_____O__PO___ SH091973 -21.49 103.81 -1 -21.50 103.80 40 70 970 4.50 -21.51 103.77 TC 66 973 -21.50 103.80 2 99 99 10 233
1973 SI WA 12:00:00 TS -21.70 103.51 1044 1044 O_____P__OP___ jtwc_sh SH091973 -21.70 103.50 -1 -21.70 103.54 40 66 973 -21.70 103.50 TC 65 975 -21.72 103.51 2 10 232
1973 SI WA 13:00:00 TS -21.81 103.36 65 975 bom 1053 1053 P_____O__PP___ SH091973 -21.81 103.35 -1 -21.80 103.40 40 65 975 4.50 -21.81 103.36 TC 64 975 -21.83 103.37 2 89 89 11 231
1973 SI WA 15:00:00 TS -22.04 103.06 1081 1081 P_____P__PP___ SH091973 -22.04 103.05 -1 -21.99 103.07 40 65 975 -22.03 103.06 TC 62 976 -22.07 103.07 2 11 231
1973 SI WA 16:00:00 TS -22.15 102.91 65 975 bom 1099 1099 P_____O__PP___ SH091973 -22.16 102.90 -1 -22.10 102.90 40 65 975 4.50 -22.16 102.91 TC 61 976 -22.19 102.92 2 89 89 11 230
1973 SI WA 18:00:00 TS -22.38 102.61 1123 1123 O_____P__OP___ jtwc_sh SH091973 -22.40 102.60 -1 -22.26 102.65 40 61 977 -22.40 102.60 TC 60 978 -22.43 102.62 2 11 229
1973 SI WA 19:00:00 TS -22.52 102.44 60 978 bom 1141 1138 P_____O__PP___ SH091973 -22.52 102.46 -1 -22.50 102.40 30 60 978 4.00 -22.52 102.44 TC 59 978 -22.55 102.47 2 84 84 14 227
1973 SI WA 20:00:00 TS -22.70 102.24 55 980 bom 1156 1154 P_____O__PP___ SH091973 -22.64 102.31 -1 -22.90 102.00 30 55 980 4.00 -22.64 102.28 TC 58 979 -22.67 102.31 2 75 75 14 227
1973 SI WA 21:00:00 TS -22.84 102.07 1164 1164 P_____P__PP___ SH091973 -22.76 102.16 -1 -23.13 101.75 30 55 980 -22.76 102.11 TC 57 980 -22.79 102.16 2 12 230
1973 SI WA 22:00:00 TS -22.95 101.92 1182 1180 P_____P__PO___ SH091973 -22.88 102.02 -1 -23.20 101.64 30 55 980 -22.87 101.95 TC 56 980 -22.90 102.00 2 9 236
1973 SI WA 1973-01-15 00:00:00 TS -23.10 101.64 1208 1208 O_____P__OP___ jtwc_sh SH091973 -23.10 101.70 -1 -23.13 101.58 30 55 981 -23.10 101.60 TC 55 982 -23.09 101.64 2 9 241
1973 SI WA 01:00:00 TS -23.17 101.48 55 982 bom 1217 1217 P_____O__PP___ SH091973 -23.19 101.52 -1 -23.10 101.50 30 55 982 4.00 -23.21 101.41 TC 55 982 -23.18 101.46 2 75 75 11 244
1973 SI WA 03:00:00 TS -23.35 101.08 1254 1254 P_____P__PP___ SH091973 -23.36 101.14 -1 -23.28 101.02 30 55 982 -23.41 101.01 TC 55 983 -23.35 101.09 2 12 244
1973 SI WA 04:00:00 TS -23.44 100.89 55 982 bom 1274 1273 P_____O__PP___ SH091973 -23.44 100.95 -1 -23.40 100.80 30 55 982 4.00 -23.51 100.82 TC 55 983 -23.44 100.91 2 75 75 11 239
1973 SI WA 06:00:00 TS -23.64 100.56 1302 1302 O_____P__OP___ jtwc_sh SH091973 -23.60 100.60 -1 -23.68 100.52 30 51 984 -23.70 100.50 TC 55 985 -23.61 100.57 2 11 237
1973 SI WA 07:00:00 TS -23.73 100.41 50 985 bom 1321 1319 P_____O__PP___ SH091973 -23.68 100.43 -1 -23.80 100.40 30 50 985 3.50 -23.79 100.37 TC 54 985 -23.70 100.41 2 69 69 9 236
1973 SI WA 09:00:00 TS -23.90 100.13 1349 1348 P_____P__PP___ SH091973 -23.86 100.13 -1 -23.92 100.10 30 50 985 -23.97 100.18 TC 52 985 -23.90 100.12 2 9 233
1973 SI WA 10:00:00 TS -24.00 100.02 50 985 bom 1358 1356 P_____O__PO___ SH091973 -23.96 100.00 -1 -24.00 100.00 30 50 985 3.50 -24.07 100.11 TC 51 985 -24.00 100.00 2 69 69 9 213
1973 SI WA 12:00:00 TS -24.26 99.88 1361 1359 O_____P__OP___ jtwc_sh SH091973 -24.20 99.80 -1 -24.32 99.99 30 50 985 -24.30 100.00 TC 50 986 -24.29 99.82 2 9 201
1973 SI WA 13:00:00 TS -24.43 99.84 50 986 bom 1369 1363 P_____O__PP___ SH091973 -24.36 99.73 -1 -24.50 100.00 30 50 986 3.50 -24.46 99.96 TC 49 986 -24.44 99.76 2 69 69 10 191
1973 SI WA 15:00:00 TS -24.77 99.77 1361 1359 P_____P__PP___ SH091973 -24.71 99.66 -1 -24.84 99.95 30 50 986 -24.82 99.91 TC 47 988 -24.76 99.65 2 11 190
1973 SI WA 16:00:00 TS -24.94 99.74 50 987 bom 1369 1365 P_____O__PP___ SH091973 -24.89 99.64 -1 -25.00 99.90 30 50 987 3.50 -25.00 99.89 TC 46 988 -24.91 99.61 2 69 69 9 190
1973 SI WA 18:00:00 TS -25.23 99.68 1365 1363 O_____P__OP___ jtwc_sh SH091973 -25.20 99.60 -1 -25.25 99.86 30 46 989 -25.30 99.80 TC 45 990 -25.20 99.54 2 9 196
1973 SI WA 19:00:00 TS -25.35 99.61 45 990 bom 1372 1372 P_____O__PP___ SH091973 -25.32 99.56 -1 -25.40 99.70 30 45 990 3.00 -25.40 99.70 TC 45 990 -25.32 99.51 2 64 64 9 214
1973 SI WA 20:00:00 TS -25.47 99.50 45 990 bom 1381 1381 P_____O__PP___ SH091973 -25.41 99.52 -1 -25.60 99.40 30 45 990 3.00 -25.48 99.59 TC 45 990 -25.43 99.47 2 64 64 8 222
1973 SI WA 21:00:00 TS -25.55 99.41 1390 1390 P_____P__PP___ SH091973 -25.49 99.47 -1 -25.71 99.20 30 44 990 -25.54 99.47 TC 45 991 -25.53 99.44 2 6 228
1973 SI WA 22:00:00 TS -25.60 99.33 1400 1400 P_____P__PO___ SH091973 -25.55 99.42 -1 -25.74 99.09 30 43 990 -25.58 99.34 TC 45 991 -25.60 99.40 2 4 250
1973 SI WA 1973-01-16 00:00:00 TS -25.62 99.20 1410 1410 O_____P__OP___ jtwc_sh SH091973 -25.60 99.30 -1 -25.66 99.02 30 40 991 -25.60 99.10 TC 45 992 -25.65 99.26 2 4 267
1973 SI WA 01:00:00 TS -25.61 99.13 40 992 bom 1420 1420 P_____O__PP___ SH091973 -25.60 99.22 -1 -25.60 99.00 30 40 992 3.00 -25.60 99.01 TC 45 992 -25.65 99.18 2 55 55 4 287
1973 SI WA 03:00:00 TS -25.56 98.97 1429 1429 P_____P__PP___ SH091973 -25.55 99.05 -1 -25.54 98.86 30 40 992 -25.54 98.85 TC 45 992 -25.61 99.03 2 5 294
1973 SI WA 04:00:00 TS -25.52 98.90 40 992 bom 1441 1441 P_____O__PP___ SH091973 -25.51 98.96 -1 -25.50 98.80 30 40 992 3.00 -25.50 98.79 TC 45 992 -25.57 98.96 2 55 55 5 308
1973 SI WA 06:00:00 TS -25.42 98.77 1452 1452 O_____P__OP___ jtwc_sh SH091973 -25.40 98.80 -1 -25.44 98.73 30 40 992 -25.40 98.70 TC 45 992 -25.46 98.82 2 4 313
1973 SI WA 07:00:00 TS -25.37 98.72 40 992 bom 1462 1462 P_____O__PP___ SH091973 -25.36 98.73 -1 -25.40 98.70 30 40 992 3.00 -25.35 98.67 TC 44 992 -25.40 98.76 2 55 55 4 320
1973 SI WA 09:00:00 TS -25.26 98.63 1473 1473 P_____P__PP___ SH091973 -25.26 98.62 -1 -25.26 98.63 30 40 992 -25.25 98.63 TC 42 992 -25.26 98.65 2 4 326
1973 SI WA 10:00:00 TS -25.20 98.59 40 992 bom 1474 1474 P_____O__PO___ SH091973 -25.21 98.57 -1 -25.20 98.60 30 40 992 3.00 -25.20 98.62 TC 41 992 -25.20 98.60 2 55 55 3 333
1973 SI WA 12:00:00 TS -25.10 98.55 1486 1486 O_____P__OP___ jtwc_sh SH091973 -25.10 98.50 -1 -25.13 98.59 30 36 992 -25.10 98.60 TC 40 993 -25.08 98.53 2 3 340
1973 SI WA 13:00:00 TS -25.06 98.53 35 993 bom 1486 1486 P_____O__PP___ SH091973 -25.05 98.47 -1 -25.10 98.60 30 35 993 3.00 -25.07 98.58 TC 40 993 -25.02 98.51 2 49 49 3 344
1973 SI WA 15:00:00 TS -24.98 98.51 1487 1487 P_____P__PP___ SH091973 -24.95 98.44 -1 -25.04 98.61 30 35 993 -25.01 98.54 TC 40 994 -24.92 98.48 2 2 0
1973 SI WA 16:00:00 TS -24.94 98.51 35 994 bom 1489 1489 P_____O__PP___ SH091973 -24.90 98.42 -1 -25.00 98.60 30 35 994 3.00 -24.98 98.53 TC 40 994 -24.87 98.48 2 49 49 3 0
1973 SI WA 18:00:00 TS -24.84 98.49 1491 1491 O_____P__OP___ jtwc_sh SH091973 -24.80 98.40 -1 -24.87 98.53 30 35 994 -24.90 98.50 TC 40 995 -24.78 98.47 2 3 0
1973 SI WA 19:00:00 TS -24.80 98.49 35 995 bom 1491 1491 ______O__PP___ SH091973 -1 -24.80 98.50 30 35 995 3.00 -24.85 98.49 TC 39 995 -24.73 98.48 2 49 49 3 9
1973 SI WA 21:00:00 TS -24.68 98.49 1492 1492 ______P__PP___ SH091973 -1 -24.66 98.49 30 31 995 -24.72 98.49 TC 37 996 -24.64 98.49 2 4 0
1973 SI WA 22:00:00 TS -24.62 98.50 30 996 bom 1494 1494 ______O__PO___ SH091973 -1 -24.60 98.50 20 30 996 2.50 -24.65 98.49 TC 36 996 -24.60 98.50 2 45 45 3 0
1973 SI WA 1973-01-17 00:00:00 TS -24.52 98.50 1496 1496 ______P__O____ -1 -24.53 98.50 20 26 996 -24.50 98.50 TC 35 997 2 2 10
1973 SI WA 01:00:00 NR -24.50 98.50 25 997 bom 1496 ______O_______ -1 -24.50 98.50 25 997 2.50 TC 2 45 45 1 0